Time;durP1;ratioP1;P1;durP2;ratioP2;P2;SDS_P1;SDS_P2;PMS_P1;PMS_P2;Temp;Humidity;BMP_temperature;BMP_pressure;BME280_temperature;BME280_humidity;BME280_pressure;Samples;Min_cycle;Max_cycle;Signal;HPM_P1;HPM_P2
2022/02/23 00:01:54;;;;;;;25.63;4.40;;;;;;;6.05;72.75;101341.31;5020127;28;20507;-83
2022/02/23 00:04:22;;;;;;;16.00;4.00;;;;;;;6.05;72.70;101338.56;5006393;28;20505;-84
2022/02/23 00:06:50;;;;;;;15.38;3.45;;;;;;;6.08;72.91;101348.16;5006103;28;20068;-84
2022/02/23 00:09:22;;;;;;;21.02;3.35;;;;;;;6.10;72.80;101351.41;5020570;28;20038;-84
2022/02/23 00:11:49;;;;;;;16.90;3.28;;;;;;;6.10;72.83;101356.91;5038259;28;20040;-84
2022/02/23 00:14:16;;;;;;;16.42;4.28;;;;;;;6.12;72.98;101343.66;5022786;28;20072;-84
2022/02/23 00:16:43;;;;;;;15.57;3.20;;;;;;;6.12;73.01;101347.25;5039279;28;20044;-84
2022/02/23 00:19:12;;;;;;;17.00;3.95;;;;;;;6.14;73.14;101353.25;5024723;28;20041;-83
2022/02/23 00:21:39;;;;;;;17.35;4.38;;;;;;;6.14;73.44;101345.00;5022649;28;20539;-85
2022/02/23 00:24:06;;;;;;;20.23;4.07;;;;;;;6.15;73.30;101348.56;5022129;28;20576;-84
2022/02/23 00:26:34;;;;;;;19.98;4.35;;;;;;;6.14;73.77;101338.72;5022014;28;20049;-84
2022/02/23 00:29:03;;;;;;;24.50;4.15;;;;;;;6.13;73.63;101343.38;5022792;28;20046;-84
2022/02/23 00:31:31;;;;;;;23.05;4.72;;;;;;;6.13;73.60;101339.81;5005803;28;20153;-83
2022/02/23 00:33:58;;;;;;;23.02;3.58;;;;;;;6.11;73.56;101336.56;5021740;28;20128;-85
2022/02/23 00:36:25;;;;;;;9.75;3.13;;;;;;;6.11;73.70;101333.81;5021998;28;20118;-84
2022/02/23 00:38:52;;;;;;;19.02;4.07;;;;;;;6.11;73.82;101333.81;5005970;28;20037;-84
2022/02/23 00:41:19;;;;;;;22.52;4.75;;;;;;;6.09;73.85;101325.03;5021653;28;20133;-84
2022/02/23 00:43:48;;;;;;;18.58;3.53;;;;;;;6.08;73.86;101316.00;5004593;28;20038;-84
2022/02/23 00:46:16;;;;;;;17.80;3.38;;;;;;;6.10;73.58;101312.94;5021676;28;20037;-84
2022/02/23 00:48:46;;;;;;;15.50;3.35;;;;;;;6.09;73.60;101308.53;5022697;28;20511;-84
2022/02/23 00:51:13;;;;;;;15.80;3.20;;;;;;;6.05;73.58;101305.59;5005335;28;20081;-83
2022/02/23 00:53:40;;;;;;;16.48;3.25;;;;;;;6.05;73.17;101319.34;5018840;28;20041;-84
2022/02/23 00:56:07;;;;;;;20.63;3.63;;;;;;;6.08;73.16;101304.16;5021517;28;20072;-83
2022/02/23 00:58:34;;;;;;;22.45;3.97;;;;;;;6.06;73.33;101295.41;5004966;28;20041;-84
2022/02/23 01:01:04;;;;;;;18.40;2.75;;;;;;;6.05;73.07;101282.78;5008020;28;20120;-84
2022/02/23 01:03:31;;;;;;;17.13;2.80;;;;;;;6.03;72.79;101285.03;5006977;28;20576;-84
2022/02/23 01:05:58;;;;;;;17.80;2.75;;;;;;;6.02;72.48;101286.94;5024003;28;20053;-83
2022/02/23 01:08:25;;;;;;;16.83;2.92;;;;;;;6.04;72.54;101276.47;5041853;28;20046;-84
2022/02/23 01:10:55;;;;;;;13.93;2.47;;;;;;;6.03;72.37;101276.78;5041014;28;20041;-84
2022/02/23 01:13:22;;;;;;;13.73;2.83;;;;;;;6.04;72.02;101264.66;5026207;28;20041;-83
2022/02/23 01:15:49;;;;;;;17.40;3.60;;;;;;;6.03;71.40;101265.78;5008811;28;20049;-84
2022/02/23 01:18:17;;;;;;;18.02;3.47;;;;;;;6.05;71.79;101261.59;5008829;28;20049;-83
2022/02/23 01:20:43;;;;;;;10.35;2.65;;;;;;;6.04;71.51;101242.66;5026670;28;20137;-84
2022/02/23 01:23:10;;;;;;;18.95;3.22;;;;;;;6.05;71.40;101244.31;5041179;28;20059;-84
2022/02/23 01:25:38;;;;;;;15.10;2.92;;;;;;;6.05;71.29;101244.31;5024635;28;20052;-83
2022/02/23 01:28:06;;;;;;;14.15;3.42;;;;;;;6.04;71.13;101242.66;5024812;28;20408;-84
2022/02/23 01:30:35;;;;;;;15.02;4.07;;;;;;;6.05;71.07;101225.06;5005847;28;20033;-82
2022/02/23 01:33:03;;;;;;;17.15;2.97;;;;;;;6.06;71.15;101226.69;5025493;28;20382;-83
2022/02/23 01:35:31;;;;;;;12.00;2.20;;;;;;;6.06;71.25;101234.94;5024982;28;20054;-84
2022/02/23 01:37:59;;;;;;;20.15;3.10;;;;;;;6.04;71.23;101221.50;5008553;28;20054;-84
2022/02/23 01:40:26;;;;;;;14.07;2.80;;;;;;;6.02;71.32;101222.91;5024158;28;20051;-83
2022/02/23 01:42:53;;;;;;;13.75;2.63;;;;;;;6.01;71.13;101221.31;5024407;28;20045;-84
2022/02/23 01:45:21;;;;;;;17.92;2.40;;;;;;;5.97;71.21;101215.59;5024591;28;20145;-83
2022/02/23 01:47:48;;;;;;;16.85;2.78;;;;;;;5.95;71.46;101211.50;5019844;28;20049;-83
2022/02/23 01:50:16;;;;;;;11.27;2.17;;;;;;;5.94;71.47;101209.88;5039853;28;20578;-83
2022/02/23 01:52:43;;;;;;;7.78;2.63;;;;;;;5.88;71.21;101189.09;5023935;28;20048;-83
2022/02/23 01:55:10;;;;;;;12.27;2.75;;;;;;;5.88;71.42;101198.16;5008519;28;20045;-83
2022/02/23 01:57:38;;;;;;;12.20;3.35;;;;;;;5.87;71.57;101191.03;5024729;28;20044;-83
2022/02/23 02:00:08;;;;;;;19.92;2.17;;;;;;;5.85;71.44;101190.50;5024502;28;20950;-84
2022/02/23 02:02:35;;;;;;;13.75;2.72;;;;;;;5.88;71.32;101194.59;5024036;28;20037;-83
2022/02/23 02:05:06;;;;;;;9.30;2.28;;;;;;;5.88;71.34;101189.09;5003444;28;20128;-83
2022/02/23 02:07:33;;;;;;;9.23;2.65;;;;;;;5.86;71.20;101185.84;5039758;28;20130;-83
2022/02/23 02:10:01;;;;;;;10.32;2.00;;;;;;;5.84;71.40;101193.53;5024081;28;20053;-84
2022/02/23 02:12:28;;;;;;;20.52;3.47;;;;;;;5.85;71.42;101195.22;5006612;28;20045;-83
2022/02/23 02:14:56;;;;;;;8.77;1.67;;;;;;;5.84;71.08;101177.06;5023695;28;20103;-84
2022/02/23 02:17:23;;;;;;;8.43;2.72;;;;;;;5.84;71.00;101182.56;5022301;28;20079;-85
2022/02/23 02:19:50;;;;;;;9.20;2.83;;;;;;;5.86;70.95;101174.84;5039872;28;20111;-83
2022/02/23 02:22:17;;;;;;;8.63;2.22;;;;;;;5.87;70.71;101187.47;5025624;28;20400;-84
2022/02/23 02:24:44;;;;;;;12.32;2.88;;;;;;;5.85;70.70;101179.53;5024229;28;20048;-82
2022/02/23 02:27:13;;;;;;;10.00;1.95;;;;;;;5.86;70.80;101191.34;5007324;28;20053;-83
2022/02/23 02:29:41;;;;;;;10.88;2.30;;;;;;;5.87;70.52;101193.78;5006382;28;20556;-83
2022/02/23 02:32:09;;;;;;;8.82;2.67;;;;;;;5.90;70.36;101195.13;5037389;28;20963;-83
2022/02/23 02:34:37;;;;;;;13.88;2.00;;;;;;;5.91;70.38;101192.06;5007054;28;20049;-83
2022/02/23 02:37:05;;;;;;;13.95;3.05;;;;;;;5.91;70.51;101188.50;5007535;28;20440;-83
2022/02/23 02:39:31;;;;;;;8.77;1.75;;;;;;;5.93;70.38;101172.53;5005489;28;20060;-83
2022/02/23 02:41:59;;;;;;;9.43;1.60;;;;;;;5.94;70.56;101169.47;5040799;28;20092;-83
2022/02/23 02:44:26;;;;;;;8.85;1.70;;;;;;;5.96;70.65;101169.97;5023002;28;20401;-84
2022/02/23 02:46:53;;;;;;;6.50;1.92;;;;;;;5.96;70.47;101158.16;5023573;28;20049;-83
2022/02/23 02:49:21;;;;;;;10.13;3.38;;;;;;;5.95;70.46;101168.38;5005981;28;20055;-83
2022/02/23 02:51:48;;;;;;;6.88;2.92;;;;;;;5.98;70.33;101161.44;5007131;28;20046;-82
2022/02/23 02:54:16;;;;;;;7.82;1.98;;;;;;;6.00;70.42;101170.19;5018464;28;20045;-83
2022/02/23 02:56:44;;;;;;;8.73;1.92;;;;;;;5.99;70.17;101152.06;5023839;28;20046;-82
2022/02/23 02:59:11;;;;;;;12.02;2.33;;;;;;;5.98;70.60;101156.72;5024776;28;20463;-83
2022/02/23 03:01:38;;;;;;;12.73;1.70;;;;;;;5.97;70.49;101159.81;5022038;28;20049;-83
2022/02/23 03:04:06;;;;;;;9.55;1.90;;;;;;;5.95;70.64;101156.56;5039288;28;20041;-83
2022/02/23 03:06:35;;;;;;;10.63;1.73;;;;;;;5.97;70.58;101159.81;5039899;28;20080;-83
2022/02/23 03:09:04;;;;;;;8.07;1.55;;;;;;;5.96;70.02;101160.91;5038882;28;20076;-83
2022/02/23 03:11:31;;;;;;;9.18;2.13;;;;;;;5.96;70.21;101149.91;5022930;28;20477;-83
2022/02/23 03:14:01;;;;;;;6.88;1.75;;;;;;;5.96;69.97;101138.94;5023173;28;20420;-82
2022/02/23 03:16:29;;;;;;;10.13;2.53;;;;;;;5.97;69.96;101129.56;5039272;28;20045;-83
2022/02/23 03:18:56;;;;;;;7.88;1.77;;;;;;;6.00;70.17;101120.72;5022129;28;20513;-83
2022/02/23 03:21:23;;;;;;;7.93;1.98;;;;;;;6.03;69.97;101120.13;5020425;28;20053;-83
2022/02/23 03:23:50;;;;;;;16.38;2.38;;;;;;;6.02;69.94;101124.78;5004101;28;20111;-82
2022/02/23 03:26:17;;;;;;;9.35;2.92;;;;;;;6.01;69.55;101122.38;5024956;28;20068;-83
2022/02/23 03:28:44;;;;;;;7.60;1.48;;;;;;;6.02;69.59;101110.22;5021163;28;20061;-83
2022/02/23 03:31:11;;;;;;;8.65;1.65;;;;;;;6.03;69.88;101126.44;5021862;28;20053;-83
2022/02/23 03:33:42;;;;;;;8.98;1.55;;;;;;;6.03;69.73;101120.94;5038435;28;20046;-83
2022/02/23 03:36:15;;;;;;;10.07;1.23;;;;;;;6.05;69.65;101120.63;5040266;28;20048;-83
2022/02/23 03:38:44;;;;;;;9.70;1.95;;;;;;;6.07;69.62;101104.63;5006204;28;20425;-83
2022/02/23 03:41:11;;;;;;;11.98;2.00;;;;;;;6.07;69.58;101126.63;5023330;28;20480;-83
2022/02/23 03:43:39;;;;;;;11.35;1.90;;;;;;;6.05;70.02;101112.38;5021985;28;20417;-83
2022/02/23 03:46:06;;;;;;;15.02;2.65;;;;;;;6.09;69.90;101094.13;5038245;28;20045;-83
2022/02/23 03:48:34;;;;;;;8.05;1.95;;;;;;;6.09;69.71;101083.94;5024420;28;20103;-82
2022/02/23 03:51:01;;;;;;;6.38;1.50;;;;;;;6.13;69.93;101085.00;5022374;28;20110;-82
2022/02/23 03:53:28;;;;;;;13.38;1.80;;;;;;;6.16;69.92;101072.56;5038178;28;20045;-83
2022/02/23 03:55:55;;;;;;;5.90;1.52;;;;;;;6.17;69.90;101076.91;5022468;28;20049;-83
2022/02/23 03:58:22;;;;;;;6.07;1.23;;;;;;;6.18;69.82;101077.75;5038192;28;20033;-83
2022/02/23 04:00:49;;;;;;;11.40;1.90;;;;;;;6.16;70.21;101050.56;5022388;28;20046;-83
2022/02/23 04:03:16;;;;;;;6.40;2.13;;;;;;;6.15;70.28;101062.66;5038895;28;20508;-83
2022/02/23 04:05:44;;;;;;;13.70;1.75;;;;;;;6.14;70.34;101050.06;5021529;28;20048;-83
2022/02/23 04:08:11;;;;;;;8.85;1.65;;;;;;;6.16;70.51;101028.56;5022479;28;20468;-82
2022/02/23 04:10:38;;;;;;;9.70;1.55;;;;;;;6.18;70.48;101029.06;5022376;28;20132;-83
2022/02/23 04:13:05;;;;;;;4.70;1.17;;;;;;;6.18;70.53;101022.75;5021681;28;20543;-82
2022/02/23 04:15:32;;;;;;;7.35;1.58;;;;;;;6.16;70.71;101036.81;5021090;28;20041;-83
2022/02/23 04:17:59;;;;;;;6.82;1.02;;;;;;;6.14;70.94;101033.56;5038267;28;20038;-83
2022/02/23 04:20:26;;;;;;;13.57;1.73;;;;;;;6.13;70.93;101029.19;5023112;28;20037;-82
2022/02/23 04:22:53;;;;;;;10.73;1.88;;;;;;;6.11;70.96;101025.94;5023499;28;20092;-83
2022/02/23 04:25:20;;;;;;;6.15;2.33;;;;;;;6.10;71.33;101044.38;5038345;28;20139;-83
2022/02/23 04:27:48;;;;;;;5.68;0.98;;;;;;;6.13;71.04;101026.44;5021339;28;20141;-83
2022/02/23 04:30:15;;;;;;;14.27;1.70;;;;;;;6.13;71.33;101029.19;5020629;28;20045;-82
2022/02/23 04:32:42;;;;;;;6.95;1.85;;;;;;;6.10;71.14;101033.38;5023164;28;20053;-83
2022/02/23 04:35:10;;;;;;;10.15;1.92;;;;;;;6.12;71.30;101033.03;5007663;28;20081;-81
2022/02/23 04:37:37;;;;;;;11.65;1.55;;;;;;;6.12;71.37;101041.28;5009113;28;20567;-83
2022/02/23 04:40:05;;;;;;;7.25;1.27;;;;;;;6.12;71.42;101041.28;5025690;28;20084;-82
2022/02/23 04:42:33;;;;;;;10.00;1.35;;;;;;;6.11;71.69;101034.19;4992549;28;20048;-83
2022/02/23 04:45:02;;;;;;;5.68;1.20;;;;;;;6.08;72.09;101021.06;5041946;28;20092;-82
2022/02/23 04:47:30;;;;;;;6.97;1.23;;;;;;;6.08;71.96;101021.88;5025379;28;20105;-83
2022/02/23 04:49:58;;;;;;;6.15;1.60;;;;;;;6.12;72.24;101016.56;5008499;28;20049;-83
2022/02/23 04:52:26;;;;;;;6.07;2.00;;;;;;;6.16;72.39;101014.84;5027255;28;20037;-82
2022/02/23 04:54:56;;;;;;;9.98;3.22;;;;;;;6.22;72.57;101001.78;5009135;28;20045;-83
2022/02/23 04:57:23;;;;;;;8.48;2.13;;;;;;;6.24;72.47;101005.84;5009699;28;20041;-83
2022/02/23 04:59:50;;;;;;;6.20;1.63;;;;;;;6.27;72.75;101005.25;5042309;28;20041;-82
2022/02/23 05:02:17;;;;;;;11.27;1.30;;;;;;;6.29;72.82;101002.97;5025407;28;20048;-82
2022/02/23 05:04:45;;;;;;;9.32;2.20;;;;;;;6.31;72.51;100997.16;5041509;28;20423;-83
2022/02/23 05:07:14;;;;;;;5.03;1.30;;;;;;;6.31;72.58;100999.91;5025035;28;20049;-82
2022/02/23 05:09:42;;;;;;;8.48;1.70;;;;;;;6.30;72.68;100987.31;5026102;28;20516;-83
2022/02/23 05:12:09;;;;;;;11.13;1.48;;;;;;;6.30;72.85;100993.59;5025652;28;20045;-83
2022/02/23 05:14:36;;;;;;;10.65;1.77;;;;;;;6.32;72.56;100990.53;5024973;28;20041;-82
2022/02/23 05:17:04;;;;;;;14.95;2.45;;;;;;;6.33;72.72;100986.69;5024122;28;20041;-82
2022/02/23 05:19:34;;;;;;;14.05;2.60;;;;;;;6.31;72.90;100983.41;5025599;28;20049;-82
2022/02/23 05:22:05;;;;;;;5.88;1.13;;;;;;;6.31;73.21;100978.72;5040871;28;20056;-82
2022/02/23 05:24:33;;;;;;;13.07;1.38;;;;;;;6.29;73.08;100974.66;5024880;28;20467;-83
2022/02/23 05:27:01;;;;;;;11.30;2.50;;;;;;;6.23;73.74;100959.41;5024767;28;20066;-84
2022/02/23 05:29:28;;;;;;;5.88;1.55;;;;;;;6.22;74.18;100949.56;5041739;28;20053;-83
2022/02/23 05:31:55;;;;;;;9.27;1.55;;;;;;;6.21;74.70;100973.47;5023863;28;21347;-81
2022/02/23 05:34:22;;;;;;;8.50;2.17;;;;;;;6.20;74.75;100973.78;5041928;28;20049;-83
2022/02/23 05:36:49;;;;;;;7.10;1.40;;;;;;;6.19;75.04;100970.22;5024492;28;20103;-82
2022/02/23 05:39:17;;;;;;;8.00;1.48;;;;;;;6.20;74.87;100971.84;5023784;28;20420;-83
2022/02/23 05:41:44;;;;;;;13.27;1.80;;;;;;;6.20;75.21;100973.78;5041945;28;20137;-82
2022/02/23 05:44:11;;;;;;;14.35;3.22;;;;;;;6.20;75.14;100960.84;5025243;28;20087;-83
2022/02/23 05:46:38;;;;;;;10.45;1.88;;;;;;;6.20;74.97;100965.53;5006597;28;20045;-83
2022/02/23 05:49:05;;;;;;;5.60;1.38;;;;;;;6.20;75.47;100954.53;5024499;28;20048;-82
2022/02/23 05:51:38;;;;;;;9.48;1.55;;;;;;;6.21;75.73;100950.66;5008905;28;20057;-83
2022/02/23 05:54:06;;;;;;;13.38;2.53;;;;;;;6.21;75.70;100956.16;5022764;28;20041;-82
2022/02/23 05:56:34;;;;;;;8.15;1.48;;;;;;;6.20;75.49;100947.09;5024540;28;20069;-83
2022/02/23 05:59:02;;;;;;;8.73;1.88;;;;;;;6.18;75.46;100935.59;5025745;28;20037;-82
2022/02/23 06:01:29;;;;;;;9.65;1.42;;;;;;;6.18;75.67;100943.03;5040521;28;20128;-82
2022/02/23 06:03:56;;;;;;;6.70;1.25;;;;;;;6.15;75.92;100941.72;5023949;28;20052;-83
2022/02/23 06:06:23;;;;;;;12.02;2.00;;;;;;;6.13;75.79;100924.75;5005129;28;20578;-82
2022/02/23 06:08:50;;;;;;;6.63;1.55;;;;;;;6.09;76.10;100927.28;5008252;28;20049;-82
2022/02/23 06:11:24;;;;;;;8.20;1.60;;;;;;;6.06;76.44;100913.38;5020091;28;20500;-82
2022/02/23 06:13:51;;;;;;;6.38;1.58;;;;;;;6.08;76.70;100924.84;5023122;28;20133;-82
2022/02/23 06:16:20;;;;;;;4.00;2.15;;;;;;;6.10;76.71;100900.63;5024086;28;20042;-82
2022/02/23 06:18:47;;;;;;;13.55;3.55;;;;;;;6.10;76.68;100889.63;5024297;28;20656;-82
2022/02/23 06:21:14;;;;;;;9.98;1.83;;;;;;;6.11;77.07;100908.56;5022961;28;20050;-82
2022/02/23 06:23:44;;;;;;;11.00;1.98;;;;;;;6.13;77.44;100911.00;5007064;28;20049;-82
2022/02/23 06:26:11;;;;;;;9.70;1.63;;;;;;;6.16;77.17;100913.13;5025815;28;20051;-82
2022/02/23 06:28:39;;;;;;;10.07;1.50;;;;;;;6.17;77.24;100900.19;5021160;28;20049;-82
2022/02/23 06:31:06;;;;;;;6.95;1.25;;;;;;;6.16;77.84;100902.13;5040021;28;20057;-82
2022/02/23 06:33:34;;;;;;;13.35;1.83;;;;;;;6.18;77.84;100888.88;5023699;28;20053;-82
2022/02/23 06:36:05;;;;;;;3.95;0.90;;;;;;;6.18;78.07;100891.63;5024166;28;20502;-82
2022/02/23 06:38:32;;;;;;;9.32;2.05;;;;;;;6.22;77.94;100884.41;5019020;28;20498;-82
2022/02/23 06:41:00;;;;;;;8.85;2.72;;;;;;;6.24;77.94;100873.88;5039766;28;20048;-82
2022/02/23 06:43:27;;;;;;;7.78;2.05;;;;;;;6.23;78.36;100872.25;5022781;28;20049;-83
2022/02/23 06:45:55;;;;;;;4.75;1.40;;;;;;;6.29;78.62;100865.50;5006810;28;20049;-83
2022/02/23 06:48:22;;;;;;;8.40;1.65;;;;;;;6.34;78.72;100862.63;5023288;28;20053;-82
2022/02/23 06:50:49;;;;;;;7.95;1.30;;;;;;;6.41;78.65;100856.66;5022814;28;20045;-82
2022/02/23 06:53:16;;;;;;;7.90;1.33;;;;;;;6.45;78.90;100853.00;5023804;28;20041;-82
2022/02/23 06:55:44;;;;;;;8.77;1.30;;;;;;;6.45;78.69;100830.19;5023101;28;20049;-82
2022/02/23 06:58:11;;;;;;;5.28;1.05;;;;;;;6.47;78.96;100842.47;5022634;28;20064;-82
2022/02/23 07:00:40;;;;;;;6.05;1.20;;;;;;;6.50;79.13;100844.59;5006053;28;20042;-82
2022/02/23 07:03:08;;;;;;;4.97;1.30;;;;;;;6.49;78.85;100844.91;5039654;28;20037;-82
2022/02/23 07:05:36;;;;;;;6.75;1.20;;;;;;;6.49;79.02;100836.66;5007568;28;20100;-82
2022/02/23 07:08:08;;;;;;;7.85;1.30;;;;;;;6.51;79.23;100831.69;5024542;28;20049;-82
2022/02/23 07:10:37;;;;;;;7.53;1.77;;;;;;;6.56;79.26;100837.03;5006551;28;20048;-82
2022/02/23 07:13:06;;;;;;;4.30;1.00;;;;;;;6.58;79.30;100830.09;5026010;28;20045;-82
2022/02/23 07:15:35;;;;;;;8.30;1.27;;;;;;;6.60;80.10;100816.81;5021958;28;20052;-82
2022/02/23 07:18:03;;;;;;;7.35;1.83;;;;;;;6.62;79.86;100809.06;5023966;28;20050;-82
2022/02/23 07:20:30;;;;;;;11.32;2.08;;;;;;;6.66;79.75;100814.75;5039057;28;20091;-82
2022/02/23 07:22:57;;;;;;;8.38;1.20;;;;;;;6.66;79.57;100807.31;5006607;28;20037;-82
2022/02/23 07:25:24;;;;;;;9.48;1.40;;;;;;;6.67;79.04;100800.66;5023195;28;20489;-83
2022/02/23 07:27:51;;;;;;;2.10;0.70;;;;;;;6.67;79.58;100784.16;5005655;28;20068;-82
2022/02/23 07:30:18;;;;;;;11.15;2.00;;;;;;;6.69;79.42;100784.66;5006135;28;20568;-82
2022/02/23 07:32:48;;;;;;;4.82;1.98;;;;;;;6.68;79.45;100763.78;5023653;28;20526;-82
2022/02/23 07:35:15;;;;;;;12.93;1.17;;;;;;;6.65;79.71;100774.59;5022824;28;20531;-81
2022/02/23 07:37:44;;;;;;;9.68;1.20;;;;;;;6.62;80.05;100764.22;5022653;28;20177;-82
2022/02/23 07:40:16;;;;;;;3.55;0.73;;;;;;;6.59;80.12;100775.91;5023153;28;20052;-81
2022/02/23 07:43:06;;;;;;;18.25;4.43;;;;;;;6.55;80.30;100770.22;5034963;28;20087;-81
2022/02/23 07:45:40;;;;;;;9.48;1.17;;;;;;;6.53;80.64;100783.47;5024058;28;20091;-81
2022/02/23 07:48:08;;;;;;;7.90;1.33;;;;;;;6.54;80.51;100781.53;5022957;28;20068;-81
2022/02/23 07:50:37;;;;;;;6.85;1.58;;;;;;;6.54;80.65;100779.56;5005137;28;20059;-81
2022/02/23 07:53:05;;;;;;;7.45;1.58;;;;;;;6.56;80.84;100771.84;5022011;28;20050;-81
2022/02/23 07:55:32;;;;;;;11.45;2.03;;;;;;;6.61;81.02;100774.44;5022303;28;20454;-81
2022/02/23 07:58:03;;;;;;;7.28;2.30;;;;;;;6.67;81.57;100772.38;5023350;28;20049;-81
2022/02/23 08:00:31;;;;;;;15.38;4.90;;;;;;;6.75;81.06;100766.88;5022826;28;20128;-81
2022/02/23 08:02:58;;;;;;;12.55;2.83;;;;;;;6.79;81.08;100755.22;5024018;28;20548;-80
2022/02/23 08:05:26;;;;;;;3.72;1.52;;;;;;;6.81;81.05;100751.03;5024374;28;20049;-81
2022/02/23 08:07:55;;;;;;;6.65;1.13;;;;;;;6.83;80.68;100736.97;5023362;28;20103;-81
2022/02/23 08:10:24;;;;;;;10.18;1.90;;;;;;;6.86;80.60;100739.88;5043001;28;20060;-81
2022/02/23 08:12:55;;;;;;;6.38;1.17;;;;;;;6.92;80.70;100737.78;5025060;28;20057;-80
2022/02/23 08:20:55;;;;;;;7.10;1.00;;;;;;;6.95;80.41;100718.69;5023532;28;20049;-81
2022/02/23 08:23:22;;;;;;;8.07;1.00;;;;;;;6.97;80.52;100723.84;5014143;28;20049;-80
2022/02/23 08:25:50;;;;;;;10.30;1.65;;;;;;;7.02;80.65;100701.69;5042649;28;20079;-81
2022/02/23 08:28:17;;;;;;;10.32;1.70;;;;;;;7.07;80.03;100696.03;5026342;28;20119;-80
2022/02/23 08:30:47;;;;;;;5.82;1.88;;;;;;;7.08;80.27;100701.22;5025621;28;20535;-81
2022/02/23 08:33:14;;;;;;;7.10;1.10;;;;;;;7.10;80.06;100698.94;5026135;28;20049;-81
2022/02/23 08:35:45;;;;;;;6.90;1.23;;;;;;;7.14;80.19;100690.84;5009929;28;20053;-81
2022/02/23 08:38:14;;;;;;;2.45;0.82;;;;;;;7.17;80.57;100687.47;5009371;28;20390;-81
2022/02/23 08:40:43;;;;;;;7.32;1.05;;;;;;;7.24;80.43;100690.53;5026304;28;20053;-80
2022/02/23 08:43:11;;;;;;;3.97;0.82;;;;;;;7.30;80.44;100675.47;5027156;28;20068;-82
2022/02/23 08:45:39;;;;;;;6.90;0.93;;;;;;;7.38;80.44;100682.91;5027277;28;20045;-81
2022/02/23 08:48:09;;;;;;;4.38;0.93;;;;;;;7.47;80.34;100664.41;5027377;28;20051;-80
2022/02/23 08:50:36;;;;;;;5.20;0.80;;;;;;;7.52;80.16;100678.03;5026345;28;20041;-81
2022/02/23 08:53:04;;;;;;;2.78;1.05;;;;;;;7.53;79.96;100671.38;5040439;28;20181;-81
2022/02/23 08:55:34;;;;;;;5.90;1.05;;;;;;;7.55;79.76;100658.09;5036574;28;20509;-81
2022/02/23 08:58:01;;;;;;;4.05;0.90;;;;;;;7.59;79.55;100655.50;5026339;28;20064;-80
2022/02/23 09:00:30;;;;;;;7.28;1.08;;;;;;;7.60;79.60;100649.66;5027907;28;20064;-80
2022/02/23 09:03:00;;;;;;;7.50;1.45;;;;;;;7.64;79.82;100652.56;5027278;28;20056;-81
2022/02/23 09:05:27;;;;;;;12.65;2.13;;;;;;;7.66;79.72;100615.28;5042790;28;20052;-85
2022/02/23 09:07:54;;;;;;;4.22;0.85;;;;;;;7.68;79.77;100621.25;5027403;28;20107;-82
2022/02/23 09:10:21;;;;;;;3.45;1.33;;;;;;;7.68;79.52;100626.78;5009189;28;20049;-83
2022/02/23 09:12:48;;;;;;;2.55;0.77;;;;;;;7.70;79.72;100641.06;5042032;28;20033;-82
2022/02/23 09:15:18;;;;;;;6.93;2.25;;;;;;;7.75;79.89;100635.38;5025903;28;20059;-82
2022/02/23 09:17:45;;;;;;;5.82;0.98;;;;;;;7.81;79.72;100636.78;5009787;28;20049;-80
2022/02/23 09:20:13;;;;;;;4.65;1.10;;;;;;;7.88;79.48;100639.03;5025724;28;20041;-80
2022/02/23 09:22:40;;;;;;;5.22;1.05;;;;;;;7.92;79.23;100638.03;5005489;28;20954;-81
2022/02/23 09:25:08;;;;;;;5.80;1.15;;;;;;;7.93;79.05;100611.28;5024861;28;20049;-80
2022/02/23 09:27:35;;;;;;;6.90;1.30;;;;;;;8.01;78.91;100623.41;5023583;28;20382;-80
2022/02/23 09:30:08;;;;;;;7.28;0.73;;;;;;;8.08;78.53;100607.16;5023939;28;20045;-80
2022/02/23 09:32:36;;;;;;;2.80;1.35;;;;;;;8.13;78.44;100615.28;5006904;28;20073;-80
2022/02/23 09:35:06;;;;;;;5.97;0.75;;;;;;;8.18;78.20;100617.84;5008798;28;20056;-80
2022/02/23 09:37:34;;;;;;;9.65;2.38;;;;;;;8.17;77.88;100602.44;5025346;28;20045;-81
2022/02/23 09:40:01;;;;;;;6.30;1.33;;;;;;;8.15;77.85;100597.25;5040208;28;20050;-80
2022/02/23 09:42:29;;;;;;;8.23;1.10;;;;;;;8.21;77.78;100597.84;5008154;28;20417;-81
2022/02/23 09:45:01;;;;;;;9.30;1.70;;;;;;;8.27;77.56;100599.31;5041945;28;20041;-80
2022/02/23 09:47:40;;;;;;;1.92;1.00;;;;;;;8.30;77.26;100574.63;5041931;28;20128;-80
2022/02/23 09:50:18;;;;;;;6.05;1.42;;;;;;;8.30;77.10;100571.88;5041966;28;20049;-83
2022/02/23 09:52:50;;;;;;;7.85;1.05;;;;;;;8.27;77.05;100555.19;5041943;28;20041;-81
2022/02/23 09:55:20;;;;;;;7.60;2.42;;;;;;;8.23;77.04;100554.22;5007929;28;20034;-81
2022/02/23 09:57:50;;;;;;;7.32;1.23;;;;;;;8.25;77.14;100551.94;5022884;28;20079;-80
2022/02/23 10:00:17;;;;;;;5.90;0.70;;;;;;;8.31;77.19;100556.16;4992025;28;20053;-80
2022/02/23 10:02:44;;;;;;;5.35;0.80;;;;;;;8.45;76.82;100546.47;5026668;28;20392;-80
2022/02/23 10:05:12;;;;;;;5.13;0.70;;;;;;;8.61;76.44;100538.38;5025995;28;20091;-80
2022/02/23 10:07:40;;;;;;;5.03;0.90;;;;;;;8.74;75.95;100551.09;5024983;28;20053;-80
2022/02/23 10:10:11;;;;;;;5.68;0.95;;;;;;;8.81;75.62;100545.03;5025909;28;20048;-80
2022/02/23 10:12:41;;;;;;;7.95;1.17;;;;;;;8.86;75.83;100528.28;5025097;28;20038;-80
2022/02/23 10:15:11;;;;;;;4.35;0.90;;;;;;;8.89;74.99;100520.13;5025088;28;20053;-80
2022/02/23 10:17:47;;;;;;;9.80;1.48;;;;;;;8.92;74.97;100515.88;5024030;28;20084;-80
2022/02/23 10:20:30;;;;;;;1.42;0.85;;;;;;;8.88;73.86;100504.69;5008115;28;20135;-81
2022/02/23 10:22:58;;;;;;;;;;;;;;;8.81;73.30;100500.88;5024607;28;20064;-80
2022/02/23 10:25:28;;;;;;;5.47;1.20;;;;;;;8.87;73.89;100494.00;5022882;28;20015;-80
2022/02/23 10:28:09;;;;;;;3.28;0.80;;;;;;;8.91;73.42;100498.50;5038716;28;20140;-84
2022/02/23 10:30:50;;;;;;;6.68;1.15;;;;;;;8.96;73.36;100494.72;5023015;28;20485;-81
2022/02/23 10:33:28;;;;;;;10.57;1.52;;;;;;;8.99;73.43;100460.91;5039617;28;20147;-82
2022/02/23 10:36:18;;;;;;;5.45;0.88;;;;;;;9.03;73.10;100479.19;5009116;28;20108;-82
2022/02/23 10:38:49;;;;;;;8.57;1.48;;;;;;;9.07;73.57;100476.56;5041422;28;20502;-81
2022/02/23 10:41:26;;;;;;;4.95;1.45;;;;;;;9.07;73.28;100488.44;5026528;28;20079;-82
2022/02/23 10:43:54;;;;;;;7.75;2.00;;;;;;;9.08;73.15;100465.16;5023752;28;20056;-82
2022/02/23 10:46:23;;;;;;;6.97;1.90;;;;;;;9.13;73.06;100453.91;5024750;28;20056;-81
2022/02/23 10:48:59;;;;;;;6.50;1.02;;;;;;;9.16;72.71;100455.16;5008769;28;20069;-82
2022/02/23 10:51:29;;;;;;;2.53;1.05;;;;;;;9.19;72.81;100465.53;5042054;28;20053;-81
2022/02/23 10:54:08;;;;;;;8.32;1.65;;;;;;;9.24;72.41;100439.66;5041347;28;20047;-81
2022/02/23 10:56:37;;;;;;;7.68;1.13;;;;;;;9.29;72.66;100447.72;5041571;28;20138;-81
2022/02/23 10:59:15;;;;;;;7.97;1.05;;;;;;;9.30;72.26;100454.84;5025149;28;20048;-81
2022/02/23 11:01:44;;;;;;;7.30;0.95;;;;;;;9.35;71.91;100438.03;5024514;28;20045;-82
2022/02/23 11:04:12;;;;;;;5.97;1.10;;;;;;;9.39;72.04;100437.03;5006542;28;20501;-81
2022/02/23 11:06:39;;;;;;;5.30;1.15;;;;;;;9.43;71.79;100431.59;5024344;28;20615;-81
2022/02/23 11:09:08;;;;;;;6.07;1.00;;;;;;;9.47;71.63;100407.66;5040409;28;20875;-81
2022/02/23 11:11:35;;;;;;;3.38;1.10;;;;;;;9.51;71.69;100409.38;5025680;28;20041;-81
2022/02/23 11:14:07;;;;;;;4.78;0.90;;;;;;;9.54;71.74;100389.34;5040498;28;20092;-81
2022/02/23 11:16:34;;;;;;;5.70;1.65;;;;;;;9.58;71.75;100400.53;5022188;28;20107;-81
2022/02/23 11:19:04;;;;;;;13.25;2.60;;;;;;;9.61;71.06;100377.72;5023805;28;20044;-80
2022/02/23 11:21:34;;;;;;;4.60;1.40;;;;;;;9.65;71.20;100384.16;5024427;28;20045;-81
2022/02/23 11:24:04;;;;;;;4.57;1.33;;;;;;;9.68;70.96;100376.00;5039984;28;20045;-81
2022/02/23 11:26:34;;;;;;;5.85;1.52;;;;;;;9.73;71.13;100372.16;5023720;28;20158;-81
2022/02/23 11:29:27;;;;;;;5.18;0.80;;;;;;;9.78;70.39;100366.41;5006431;28;20054;-81
2022/02/23 11:31:54;;;;;;;;;;;;;;;9.77;69.66;100337.94;5025729;28;20076;-82
2022/02/23 11:34:25;;;;;;;7.00;1.17;;;;;;;9.81;69.62;100340.81;5039951;28;19925;-81
2022/02/23 11:36:54;;;;;;;5.80;1.23;;;;;;;9.87;70.22;100328.38;5023813;28;20095;-82
2022/02/23 11:39:29;;;;;;;5.03;1.15;;;;;;;9.95;69.42;100357.84;5023213;28;20052;-81
2022/02/23 11:42:02;;;;;;;10.55;1.38;;;;;;;10.01;69.60;100320.47;5007570;28;20049;-82
2022/02/23 11:44:38;;;;;;;8.40;1.13;;;;;;;10.08;68.97;100331.75;5005984;28;20045;-81